Time;durP1;ratioP1;P1;durP2;ratioP2;P2;SDS_P1;SDS_P2;PMS_P1;PMS_P2;Temp;Humidity;BMP_temperature;BMP_pressure;BME280_temperature;BME280_humidity;BME280_pressure;Samples;Min_cycle;Max_cycle;Signal;HPM_P1;HPM_P2
2022/03/01 00:01:45;;;;;;;26.77;18.27;;;;;;;1.78;100.00;102914.84;4922469;28;20907;-80
2022/03/01 00:04:14;;;;;;;25.98;17.55;;;;;;;1.75;100.00;102910.34;4962343;28;20058;-79
2022/03/01 00:06:42;;;;;;;24.58;17.85;;;;;;;1.72;100.00;102903.25;4930722;28;20071;-81
2022/03/01 00:09:11;;;;;;;25.90;17.15;;;;;;;1.70;100.00;102902.25;4951165;28;20047;-79
2022/03/01 00:11:39;;;;;;;24.95;16.42;;;;;;;1.70;100.00;102914.31;4942213;28;20054;-79
2022/03/01 00:14:08;;;;;;;25.08;16.90;;;;;;;1.71;100.00;102897.94;4959307;28;20423;-79
2022/03/01 00:16:37;;;;;;;25.85;17.63;;;;;;;1.72;100.00;102900.66;4964339;28;20047;-79
2022/03/01 00:19:06;;;;;;;22.25;16.40;;;;;;;1.72;100.00;102899.72;4934809;28;20043;-79
2022/03/01 00:21:35;;;;;;;23.45;15.95;;;;;;;1.73;100.00;102898.94;4947851;28;20051;-80
2022/03/01 00:24:05;;;;;;;24.25;17.00;;;;;;;1.75;100.00;102897.34;4947593;28;20058;-79
2022/03/01 00:26:35;;;;;;;25.55;17.15;;;;;;;1.74;100.00;102904.25;4940475;28;20036;-81
2022/03/01 00:29:03;;;;;;;21.75;14.95;;;;;;;1.75;100.00;102899.94;4935048;28;20046;-80
2022/03/01 00:31:32;;;;;;;24.27;15.95;;;;;;;1.79;100.00;102901.97;4966842;28;20050;-81
2022/03/01 00:34:01;;;;;;;21.20;14.32;;;;;;;1.81;100.00;102902.97;4914599;28;20236;-80
2022/03/01 00:36:29;;;;;;;18.92;14.13;;;;;;;1.84;100.00;102907.53;4951371;28;20039;-81
2022/03/01 00:38:58;;;;;;;20.48;14.88;;;;;;;1.84;100.00;102903.22;4966057;28;20091;-80
2022/03/01 00:41:26;;;;;;;18.45;14.07;;;;;;;1.87;100.00;102906.06;4955742;28;20066;-81
2022/03/01 00:43:54;;;;;;;20.05;14.80;;;;;;;1.89;100.00;102914.84;4941730;28;20376;-80
2022/03/01 00:46:26;;;;;;;21.73;14.70;;;;;;;1.91;100.00;102912.34;4952426;28;20043;-81
2022/03/01 00:48:57;;;;;;;22.52;14.23;;;;;;;1.94;100.00;102910.88;4943513;28;20803;-80
2022/03/01 00:51:27;;;;;;;20.33;14.68;;;;;;;1.95;100.00;102920.50;4967126;28;20051;-82
2022/03/01 00:54:32;;;;;;;21.15;14.80;;;;;;;1.95;100.00;102904.88;4965273;28;20039;-82
2022/03/01 00:57:02;;;;;;;22.45;14.90;;;;;;;1.94;100.00;102908.25;4962299;28;20046;-80
2022/03/01 00:59:31;;;;;;;20.60;13.90;;;;;;;1.94;100.00;102907.38;4956888;28;20038;-80
2022/03/01 01:01:59;;;;;;;20.30;14.35;;;;;;;1.94;100.00;102908.25;4964412;28;20053;-80
2022/03/01 01:04:31;;;;;;;17.88;13.80;;;;;;;1.95;100.00;102909.19;4925578;28;20050;-80
2022/03/01 01:06:59;;;;;;;20.48;14.40;;;;;;;1.94;100.00;102908.25;4927635;28;20039;-81
2022/03/01 01:09:28;;;;;;;20.65;14.00;;;;;;;1.95;100.00;102909.19;4968918;28;20066;-80
2022/03/01 01:11:58;;;;;;;17.90;13.80;;;;;;;1.93;100.00;102909.06;4961716;28;20042;-81
2022/03/01 01:14:26;;;;;;;20.35;13.82;;;;;;;1.92;100.00;102916.75;4942888;28;20374;-80
2022/03/01 01:16:55;;;;;;;19.77;13.43;;;;;;;1.91;100.00;102907.13;4949591;28;20047;-82
2022/03/01 01:19:23;;;;;;;20.45;14.63;;;;;;;1.90;100.00;102911.44;4909064;28;20377;-80
2022/03/01 01:24:39;;;;;;;21.80;14.23;;;;;;;1.89;100.00;102906.13;4966996;28;20058;-81
2022/03/01 01:27:07;;;;;;;18.75;13.82;;;;;;;1.84;100.00;102900.63;4942549;28;20149;-81
2022/03/01 01:29:36;;;;;;;21.08;14.15;;;;;;;1.82;100.00;102899.59;4952221;28;20054;-79
2022/03/01 01:32:05;;;;;;;20.67;14.40;;;;;;;1.79;100.00;102899.38;4958343;28;20301;-79
2022/03/01 01:34:33;;;;;;;18.90;13.80;;;;;;;1.76;100.00;102901.78;4965839;28;20043;-79
2022/03/01 01:37:02;;;;;;;19.85;14.25;;;;;;;1.73;100.00;102897.25;4911938;28;20043;-81
2022/03/01 01:39:30;;;;;;;18.20;13.23;;;;;;;1.71;100.00;102901.44;4965961;28;20115;-80
2022/03/01 01:41:59;;;;;;;21.40;15.35;;;;;;;1.70;100.00;102903.91;4946310;28;20047;-80
2022/03/01 01:44:32;;;;;;;19.38;14.63;;;;;;;1.69;100.00;102900.41;4951801;28;20054;-79
2022/03/01 01:47:01;;;;;;;21.10;15.00;;;;;;;1.68;100.00;102895.09;4929293;28;20055;-79
2022/03/01 01:49:29;;;;;;;20.33;14.88;;;;;;;1.66;100.00;102899.28;4965161;28;20419;-79
2022/03/01 01:51:58;;;;;;;20.58;14.75;;;;;;;1.64;100.00;102904.38;4938785;28;20055;-81
2022/03/01 01:54:26;;;;;;;22.60;14.77;;;;;;;1.63;100.00;102902.56;4932758;28;20399;-79
2022/03/01 01:56:55;;;;;;;21.73;15.10;;;;;;;1.61;100.00;102898.97;4931313;28;20038;-80
2022/03/01 01:59:23;;;;;;;24.55;16.05;;;;;;;1.60;100.00;102904.03;4935282;28;20046;-79
2022/03/01 02:01:55;;;;;;;20.95;14.75;;;;;;;1.55;100.00;102898.50;4943030;23;20047;-81
2022/03/01 02:04:28;;;;;;;21.83;14.85;;;;;;;1.52;100.00;102899.19;4935983;29;20066;-79
2022/03/01 02:06:56;;;;;;;;;;;;;;;1.50;100.00;102895.59;4911753;29;20046;-80
2022/03/01 02:09:26;;;;;;;21.90;14.70;;;;;;;1.46;100.00;102885.75;4961002;28;19923;-81
2022/03/01 02:11:54;;;;;;;18.92;13.93;;;;;;;1.45;100.00;102891.72;4946953;29;20046;-79
2022/03/01 02:14:23;;;;;;;21.00;15.43;;;;;;;1.44;100.00;102892.53;4909709;29;20552;-79
2022/03/01 02:16:52;;;;;;;19.85;14.43;;;;;;;1.42;100.00;102898.41;4932578;29;20043;-80
2022/03/01 02:19:24;;;;;;;20.60;15.73;;;;;;;1.38;100.00;102892.09;4934323;29;20051;-80
2022/03/01 02:21:57;;;;;;;21.23;15.60;;;;;;;1.36;100.00;102897.19;4896996;29;20044;-80
2022/03/01 02:24:30;;;;;;;21.10;14.20;;;;;;;1.34;100.00;102900.44;4924178;29;20369;-80
2022/03/01 02:27:04;;;;;;;21.73;15.63;;;;;;;1.31;100.00;102895.03;4932996;29;20054;-80
2022/03/01 02:29:34;;;;;;;22.42;16.17;;;;;;;1.28;100.00;102900.88;4935175;28;20047;-79
2022/03/01 02:32:06;;;;;;;24.10;16.17;;;;;;;1.27;100.00;102898.19;4931600;28;20044;-80
2022/03/01 02:34:35;;;;;;;21.60;14.68;;;;;;;1.25;100.00;102897.16;4946484;28;20558;-81
2022/03/01 02:37:05;;;;;;;22.35;15.20;;;;;;;1.22;100.00;102904.75;4928156;28;20058;-79
2022/03/01 02:39:34;;;;;;;25.65;15.50;;;;;;;1.19;100.00;102897.59;4948154;29;20050;-81
2022/03/01 02:42:03;;;;;;;23.85;15.27;;;;;;;1.16;100.00;102900.88;4950056;28;20393;-79
2022/03/01 02:44:38;;;;;;;23.42;15.65;;;;;;;1.13;100.00;102889.38;4926864;29;20054;-80
2022/03/01 02:47:14;;;;;;;23.42;14.82;;;;;;;1.13;100.00;102889.38;4942600;29;20066;-79
2022/03/01 02:49:42;;;;;;;25.20;15.85;;;;;;;1.10;100.00;102879.66;4881355;29;20378;-81
2022/03/01 02:52:11;;;;;;;22.95;15.27;;;;;;;1.10;100.00;102883.97;4922501;28;20048;-81
2022/03/01 02:54:40;;;;;;;22.63;14.90;;;;;;;1.07;100.00;102883.72;4945196;29;20047;-81
2022/03/01 02:57:08;;;;;;;21.98;15.15;;;;;;;1.04;100.00;102876.63;4920739;29;20047;-80
2022/03/01 02:59:40;;;;;;;23.38;15.68;;;;;;;1.02;100.00;102885.06;4940845;28;20128;-80
2022/03/01 03:02:12;;;;;;;20.70;14.82;;;;;;;0.97;100.00;102885.63;4949042;28;20066;-80
2022/03/01 03:04:42;;;;;;;19.50;14.48;;;;;;;0.95;100.00;102878.53;4951614;28;20593;-80
2022/03/01 03:07:12;;;;;;;25.98;16.15;;;;;;;0.90;100.00;102888.56;4962231;28;20050;-79
2022/03/01 03:09:43;;;;;;;20.17;15.35;;;;;;;0.89;100.00;102884.16;4932858;28;20054;-82
2022/03/01 03:12:11;;;;;;;21.10;15.45;;;;;;;0.89;100.00;102891.03;4958324;28;20492;-80
2022/03/01 03:14:40;;;;;;;21.65;14.80;;;;;;;0.86;100.00;102889.13;4968650;28;20043;-81
2022/03/01 03:17:09;;;;;;;20.38;15.18;;;;;;;0.83;100.00;102888.88;4924087;28;20042;-80
2022/03/01 03:19:37;;;;;;;20.45;15.77;;;;;;;0.81;100.00;102886.97;4973167;28;20047;-80
2022/03/01 03:22:06;;;;;;;21.80;15.05;;;;;;;0.78;100.00;102885.03;4917454;28;20059;-81
2022/03/01 03:24:34;;;;;;;20.65;14.93;;;;;;;0.74;100.00;102889.09;4940703;28;20411;-80
2022/03/01 03:27:06;;;;;;;24.05;15.27;;;;;;;0.73;100.00;102879.50;4981842;28;20042;-80
2022/03/01 03:29:34;;;;;;;20.52;14.80;;;;;;;0.70;100.00;102881.88;4939333;28;20514;-80
2022/03/01 03:32:03;;;;;;;23.50;15.35;;;;;;;0.69;100.00;102885.25;4964445;28;20047;-80
2022/03/01 03:34:32;;;;;;;22.10;14.35;;;;;;;0.66;100.00;102877.25;4962162;28;20065;-79
2022/03/01 03:37:01;;;;;;;19.15;14.52;;;;;;;0.67;100.00;102872.94;4952507;28;20051;-79
2022/03/01 03:39:29;;;;;;;20.55;14.77;;;;;;;0.68;100.00;102870.47;4936218;28;20393;-80
2022/03/01 03:41:58;;;;;;;18.73;13.75;;;;;;;0.69;100.00;102868.78;4971283;28;20257;-80
2022/03/01 03:44:26;;;;;;;20.77;14.63;;;;;;;0.69;100.00;102873.97;4955092;28;20042;-80
2022/03/01 03:46:55;;;;;;;23.15;15.63;;;;;;;0.67;100.00;102863.47;4948357;28;20270;-79
2022/03/01 03:49:24;;;;;;;19.33;14.27;;;;;;;0.67;100.00;102866.06;4973489;28;20045;-80
2022/03/01 03:51:55;;;;;;;21.73;14.63;;;;;;;0.68;100.00;102861.75;4955308;28;20056;-81
2022/03/01 03:54:27;;;;;;;18.30;14.50;;;;;;;0.70;100.00;102861.13;4966156;28;20415;-80
2022/03/01 03:56:56;;;;;;;23.83;13.98;;;;;;;0.73;100.00;102857.84;4958845;28;20249;-79
2022/03/01 03:59:27;;;;;;;19.95;14.05;;;;;;;0.77;100.00;102862.47;4969318;28;20046;-80
2022/03/01 04:01:57;;;;;;;19.58;14.68;;;;;;;0.78;100.00;102869.47;4967296;28;20632;-80
2022/03/01 04:04:29;;;;;;;22.20;14.98;;;;;;;0.80;100.00;102852.31;4929180;29;20400;-80
2022/03/01 04:06:59;;;;;;;19.13;14.88;;;;;;;0.82;100.00;102855.03;4933669;29;20424;-81
2022/03/01 04:09:27;;;;;;;21.20;15.02;;;;;;;0.82;100.00;102860.22;4927206;29;20050;-81
2022/03/01 04:11:55;;;;;;;19.95;13.38;;;;;;;0.83;100.00;102854.22;4945570;28;20689;-79
2022/03/01 04:14:24;;;;;;;24.92;15.65;;;;;;;0.83;100.00;102846.44;4890861;29;20512;-81
2022/03/01 04:16:52;;;;;;;18.52;13.70;;;;;;;0.83;100.00;102841.25;4917940;29;20365;-80
2022/03/01 04:19:22;;;;;;;21.50;15.23;;;;;;;0.87;100.00;102853.66;4910314;29;20540;-80
2022/03/01 04:21:51;;;;;;;19.80;14.10;;;;;;;0.87;100.00;102851.06;4914216;29;20062;-80
2022/03/01 04:24:19;;;;;;;20.23;13.85;;;;;;;0.88;100.00;102850.31;4913146;29;20043;-80
2022/03/01 04:26:48;;;;;;;21.52;13.93;;;;;;;0.88;100.00;102845.09;4937796;28;20055;-80
2022/03/01 04:29:19;;;;;;;21.02;13.95;;;;;;;0.87;100.00;102849.41;4936439;29;20055;-80
2022/03/01 04:31:48;;;;;;;22.63;15.02;;;;;;;0.88;100.00;102856.38;4922700;29;20062;-79
2022/03/01 04:34:17;;;;;;;20.27;15.13;;;;;;;0.88;100.00;102845.09;4926865;29;20512;-79
2022/03/01 04:36:46;;;;;;;22.52;13.80;;;;;;;0.88;100.00;102858.09;4954190;28;20070;-79
2022/03/01 04:39:15;;;;;;;20.38;14.57;;;;;;;0.86;100.00;102849.28;4937958;29;20408;-80
2022/03/01 04:41:43;;;;;;;19.52;14.68;;;;;;;0.85;100.00;102850.06;4917527;28;20059;-80
2022/03/01 04:44:12;;;;;;;21.02;14.48;;;;;;;0.82;100.00;102847.25;4954016;28;20405;-80
2022/03/01 04:46:42;;;;;;;19.88;15.20;;;;;;;0.82;100.00;102852.44;4931406;29;20265;-81
2022/03/01 04:49:12;;;;;;;22.90;14.52;;;;;;;0.81;100.00;102846.31;4942248;28;20055;-80
2022/03/01 04:51:41;;;;;;;21.17;15.15;;;;;;;0.80;100.00;102839.34;4902299;29;20035;-80
2022/03/01 04:54:12;;;;;;;21.42;14.70;;;;;;;0.78;100.00;102849.59;4918720;29;20044;-79
2022/03/01 04:56:41;;;;;;;21.05;14.43;;;;;;;0.76;100.00;102846.00;4861704;28;20417;-80
2022/03/01 04:59:10;;;;;;;21.65;14.65;;;;;;;0.75;100.00;102838.09;4925563;28;20043;-79
2022/03/01 05:01:40;;;;;;;21.83;13.80;;;;;;;0.73;100.00;102837.06;4935679;28;20046;-81
2022/03/01 05:04:11;;;;;;;19.67;14.48;;;;;;;0.71;100.00;102841.25;4957269;28;20053;-81
2022/03/01 05:06:40;;;;;;;19.58;14.80;;;;;;;0.72;100.00;102840.47;4948499;28;20042;-81
2022/03/01 05:09:09;;;;;;;22.50;14.60;;;;;;;0.71;100.00;102834.34;4989375;28;20050;-79
2022/03/01 05:11:37;;;;;;;17.70;13.95;;;;;;;0.72;100.00;102838.78;4966400;28;20487;-80
2022/03/01 05:14:06;;;;;;;21.85;14.30;;;;;;;0.71;100.00;102838.66;4956979;28;20057;-80
2022/03/01 05:16:35;;;;;;;21.60;14.43;;;;;;;0.72;100.00;102840.47;4971482;28;20054;-80
2022/03/01 05:19:04;;;;;;;18.95;14.32;;;;;;;0.73;100.00;102844.84;4974406;28;20042;-79
2022/03/01 05:21:32;;;;;;;19.83;14.70;;;;;;;0.73;100.00;102844.84;4949654;28;20109;-79
2022/03/01 05:24:02;;;;;;;21.77;15.00;;;;;;;0.75;100.00;102851.06;4973705;28;20046;-80
2022/03/01 05:26:31;;;;;;;22.52;14.90;;;;;;;0.75;100.00;102848.47;4966181;28;20023;-79
2022/03/01 05:28:59;;;;;;;21.17;14.55;;;;;;;0.75;100.00;102856.25;4954252;28;20058;-80
2022/03/01 05:31:28;;;;;;;22.85;15.40;;;;;;;0.77;100.00;102854.69;4970722;28;20510;-80
2022/03/01 05:33:57;;;;;;;19.83;14.82;;;;;;;0.78;100.00;102851.31;4954120;28;20142;-81
2022/03/01 05:36:25;;;;;;;22.88;14.63;;;;;;;0.78;100.00;102840.94;4947216;28;20117;-80
2022/03/01 05:38:54;;;;;;;19.33;14.35;;;;;;;0.77;100.00;102840.00;4988959;28;20523;-80
2022/03/01 05:41:24;;;;;;;20.08;15.38;;;;;;;0.76;100.00;102835.63;4956687;28;20050;-81
2022/03/01 05:43:52;;;;;;;22.95;15.45;;;;;;;0.75;100.00;102838.09;4946116;28;20034;-79
2022/03/01 05:46:26;;;;;;;20.25;15.18;;;;;;;0.75;100.00;102832.91;4954112;28;20066;-79
2022/03/01 05:48:55;;;;;;;20.38;15.45;;;;;;;0.74;100.00;102832.00;4947307;28;20525;-80
2022/03/01 05:51:23;;;;;;;21.10;15.32;;;;;;;0.73;100.00;102844.84;4962092;28;20271;-79
2022/03/01 05:53:54;;;;;;;19.17;14.95;;;;;;;0.74;100.00;102842.38;4957114;28;20050;-80
2022/03/01 05:56:24;;;;;;;23.98;16.83;;;;;;;0.75;100.00;102849.38;4923223;28;20330;-81
2022/03/01 05:58:53;;;;;;;25.65;15.63;;;;;;;0.75;100.00;102838.97;4953016;28;20054;-81
2022/03/01 06:01:22;;;;;;;19.75;14.40;;;;;;;0.77;100.00;102845.19;4921194;28;20050;-81
2022/03/01 06:03:51;;;;;;;23.27;16.30;;;;;;;0.79;100.00;102840.13;4972599;28;20069;-80
2022/03/01 06:06:19;;;;;;;23.02;14.38;;;;;;;0.79;100.00;102847.91;4963521;28;20046;-80
2022/03/01 06:08:48;;;;;;;23.10;15.77;;;;;;;0.80;100.00;102843.66;4911262;28;20051;-79
2022/03/01 06:11:16;;;;;;;23.20;16.33;;;;;;;0.80;100.00;102854.03;4948154;28;20045;-79
2022/03/01 06:13:49;;;;;;;22.27;14.48;;;;;;;0.79;100.00;102850.50;4941080;28;20051;-79
2022/03/01 06:16:18;;;;;;;21.80;14.80;;;;;;;0.78;100.00;102865.19;4951586;28;20034;-79
2022/03/01 06:18:48;;;;;;;22.70;15.18;;;;;;;0.79;100.00;102858.28;4958271;28;20050;-79
2022/03/01 06:21:17;;;;;;;20.80;14.80;;;;;;;0.80;100.00;102873.09;4983128;28;20053;-79
2022/03/01 06:23:46;;;;;;;20.05;14.60;;;;;;;0.82;100.00;102873.22;4962736;28;20063;-80
2022/03/01 06:26:16;;;;;;;19.33;14.20;;;;;;;0.82;100.00;102868.91;4982174;28;20046;-80
2022/03/01 06:28:44;;;;;;;23.33;15.63;;;;;;;0.82;100.00;102881.88;4971242;28;20054;-82
2022/03/01 06:31:13;;;;;;;21.55;15.25;;;;;;;0.85;100.00;102886.41;4951502;28;20034;-80
2022/03/01 06:33:42;;;;;;;19.63;14.38;;;;;;;0.85;100.00;102878.59;4956407;28;20038;-80
2022/03/01 06:36:10;;;;;;;20.63;15.02;;;;;;;0.88;100.00;102894.44;4996334;28;20061;-80
2022/03/01 06:38:56;;;;;;;17.52;13.05;;;;;;;0.87;100.00;102893.53;4967380;28;20051;-80
2022/03/01 06:41:25;;;;;;;19.00;13.90;;;;;;;0.88;100.00;102887.53;4964318;28;20240;-80
2022/03/01 06:43:55;;;;;;;25.92;17.70;;;;;;;0.91;100.00;102892.06;4968521;28;20038;-81
2022/03/01 06:46:25;;;;;;;21.50;14.77;;;;;;;0.91;100.00;102890.38;4920966;28;20058;-79
2022/03/01 06:48:53;;;;;;;21.27;15.03;;;;;;;0.93;100.00;102900.88;4952482;28;20045;-80
2022/03/01 06:51:22;;;;;;;22.88;15.88;;;;;;;0.95;100.00;102894.09;4951117;28;20053;-79
2022/03/01 06:53:51;;;;;;;21.83;15.57;;;;;;;0.96;100.00;102902.00;4982051;28;20046;-80
2022/03/01 06:56:20;;;;;;;20.20;15.32;;;;;;;0.98;100.00;102896.91;4960473;28;20058;-80
2022/03/01 06:58:52;;;;;;;17.33;12.15;;;;;;;1.00;100.00;102902.22;4966360;28;20042;-79
2022/03/01 07:01:21;;;;;;;19.42;15.65;;;;;;;1.00;100.00;102895.34;4943295;28;20054;-80
2022/03/01 07:03:49;;;;;;;23.08;15.48;;;;;;;1.01;100.00;102893.66;4936163;28;20158;-79
2022/03/01 07:06:18;;;;;;;20.65;16.02;;;;;;;1.02;100.00;102891.19;4969610;28;20054;-81
2022/03/01 07:08:47;;;;;;;20.88;14.95;;;;;;;1.03;100.00;102892.97;4972224;28;20049;-77
2022/03/01 07:11:16;;;;;;;24.40;15.10;;;;;;;1.06;100.00;102893.22;4935692;28;20058;-77
2022/03/01 07:13:45;;;;;;;21.52;14.25;;;;;;;1.09;100.00;102893.44;4970023;28;20053;-77
2022/03/01 07:16:14;;;;;;;20.40;15.15;;;;;;;1.12;100.00;102898.84;4930158;28;20069;-77
2022/03/01 07:18:44;;;;;;;21.77;14.65;;;;;;;1.15;100.00;102896.50;4931189;28;20522;-77
2022/03/01 07:21:13;;;;;;;19.88;13.98;;;;;;;1.18;100.00;102901.00;4953307;28;20038;-78
2022/03/01 07:23:41;;;;;;;26.45;18.42;;;;;;;1.22;100.00;102902.16;4985636;28;20046;-77
2022/03/01 07:26:16;;;;;;;19.70;14.73;;;;;;;1.26;100.00;102897.28;4954070;28;20061;-78
2022/03/01 07:28:50;;;;;;;19.08;14.38;;;;;;;1.30;100.00;102898.41;4965120;28;20039;-79
2022/03/01 07:31:24;;;;;;;22.05;14.82;;;;;;;1.33;100.00;102903.84;4919984;28;20073;-77
2022/03/01 07:33:53;;;;;;;20.85;14.18;;;;;;;1.36;100.00;102898.84;4946419;28;20042;-76
2022/03/01 07:36:21;;;;;;;19.10;14.38;;;;;;;1.39;100.00;102904.28;4935997;28;20047;-78
2022/03/01 07:38:50;;;;;;;20.08;13.75;;;;;;;1.42;100.00;102904.53;4961062;28;20047;-77
2022/03/01 07:41:18;;;;;;;25.95;15.52;;;;;;;1.47;100.00;102918.72;4927107;28;20049;-77
2022/03/01 07:43:48;;;;;;;20.75;13.90;;;;;;;1.54;100.00;102917.50;4956241;28;20054;-77
2022/03/01 07:46:17;;;;;;;21.52;14.90;;;;;;;1.61;100.00;102911.03;4965527;28;20368;-77
2022/03/01 07:48:49;;;;;;;26.50;15.23;;;;;;;1.67;100.00;102917.59;4975719;28;20041;-78
2022/03/01 07:51:17;;;;;;;24.38;15.25;;;;;;;1.75;100.00;102919.03;4967721;28;20172;-77
2022/03/01 07:53:47;;;;;;;25.42;14.10;;;;;;;1.83;100.00;102919.59;4990909;28;20039;-78
2022/03/01 07:56:20;;;;;;;21.02;14.18;;;;;;;1.93;100.00;102926.38;4959729;28;20436;-78
2022/03/01 07:58:52;;;;;;;22.67;14.75;;;;;;;2.02;100.00;102918.31;4941734;28;20038;-77
2022/03/01 08:01:22;;;;;;;22.63;15.10;;;;;;;2.10;100.00;102915.47;4942639;28;20030;-78
2022/03/01 08:03:53;;;;;;;20.40;14.82;;;;;;;2.20;100.00;102927.44;4956015;28;20053;-78
2022/03/01 08:06:22;;;;;;;19.85;13.90;;;;;;;2.27;100.00;102924.47;4959290;28;20051;-77
2022/03/01 08:08:53;;;;;;;20.52;15.10;;;;;;;2.32;100.00;102925.69;4978759;28;20039;-79
2022/03/01 08:11:22;;;;;;;20.90;14.68;;;;;;;2.38;100.00;102927.81;4952140;28;20047;-76
2022/03/01 08:13:50;;;;;;;21.17;15.02;;;;;;;2.45;100.00;102929.16;4960820;28;20065;-78
2022/03/01 08:16:19;;;;;;;19.63;15.32;;;;;;;2.50;100.00;102932.97;4985907;28;20424;-77
2022/03/01 08:18:48;;;;;;;24.52;16.02;;;;;;;2.53;100.00;102940.97;4974107;28;20575;-78
2022/03/01 08:21:17;;;;;;;17.90;14.02;;;;;;;2.57;100.00;102937.81;4908570;28;21444;-78
2022/03/01 08:23:45;;;;;;;19.83;14.85;;;;;;;2.62;100.00;102931.22;4964986;28;20042;-78
2022/03/01 08:26:14;;;;;;;21.52;14.35;;;;;;;2.65;100.00;102928.84;4971336;28;20240;-77
2022/03/01 08:28:45;;;;;;;18.35;14.75;;;;;;;2.68;100.00;102936.84;4948578;28;20046;-77
2022/03/01 08:31:14;;;;;;;18.17;14.20;;;;;;;2.71;100.00;102929.25;4981854;28;20090;-77
2022/03/01 08:33:42;;;;;;;21.20;14.57;;;;;;;2.77;100.00;102936.56;4954625;28;20399;-78
2022/03/01 08:36:14;;;;;;;20.33;14.40;;;;;;;2.82;100.00;102934.31;4961853;28;20050;-77
2022/03/01 08:38:43;;;;;;;24.10;15.45;;;;;;;2.86;100.00;102933.72;4929432;28;20360;-77
2022/03/01 08:41:12;;;;;;;19.27;14.25;;;;;;;2.89;100.00;102934.81;4953781;28;20043;-78
2022/03/01 08:43:40;;;;;;;19.88;14.00;;;;;;;2.91;100.00;102938.44;4938796;28;20046;-77
2022/03/01 08:46:11;;;;;;;20.95;15.15;;;;;;;2.95;100.00;102934.34;4986512;28;20610;-77
2022/03/01 08:48:40;;;;;;;20.60;14.38;;;;;;;3.01;100.00;102929.53;4968178;28;20035;-76
2022/03/01 08:51:09;;;;;;;22.55;14.68;;;;;;;3.04;100.00;102929.72;4977673;28;20046;-77
2022/03/01 08:53:38;;;;;;;18.60;14.15;;;;;;;3.08;100.00;102941.25;4932428;28;20035;-78
2022/03/01 08:56:08;;;;;;;18.63;14.07;;;;;;;3.11;100.00;102936.25;4953730;28;20038;-78
2022/03/01 08:58:36;;;;;;;24.55;14.52;;;;;;;3.14;100.00;102933.88;4968454;28;20046;-78
2022/03/01 09:01:05;;;;;;;25.50;15.00;;;;;;;3.20;100.00;102933.38;4985002;28;20077;-78
2022/03/01 09:03:34;;;;;;;22.13;14.10;;;;;;;3.24;100.00;102930.16;4971611;28;20046;-77
2022/03/01 09:06:20;;;;;;;19.52;14.40;;;;;;;3.29;100.00;102934.00;4978399;28;23488;-77
2022/03/01 09:08:49;;;;;;;22.88;13.77;;;;;;;3.37;100.00;102931.88;4943156;28;20055;-77
2022/03/01 09:11:17;;;;;;;21.58;14.50;;;;;;;3.44;100.00;102937.59;4970737;28;20259;-77
2022/03/01 09:13:46;;;;;;;22.52;14.82;;;;;;;3.55;100.00;102927.84;4973732;28;20396;-77
2022/03/01 09:16:17;;;;;;;22.05;15.23;;;;;;;3.63;100.00;102923.13;4948261;28;20038;-77
2022/03/01 09:18:46;;;;;;;18.98;13.73;;;;;;;3.72;100.00;102928.94;4941435;28;20061;-77
2022/03/01 09:21:15;;;;;;;21.13;14.52;;;;;;;3.82;100.00;102938.25;4978363;28;20676;-77
2022/03/01 09:23:43;;;;;;;20.80;14.68;;;;;;;3.90;100.00;102937.06;4989916;28;20039;-77
2022/03/01 09:26:12;;;;;;;21.98;15.05;;;;;;;3.98;100.00;102934.94;4935659;28;20700;-78
2022/03/01 09:28:41;;;;;;;25.88;15.20;;;;;;;4.08;100.00;102934.72;4971778;28;20049;-78
2022/03/01 09:31:11;;;;;;;19.98;13.80;;;;;;;4.19;100.00;102938.00;4958770;28;20241;-77
2022/03/01 09:33:42;;;;;;;21.05;14.35;;;;;;;4.32;100.00;102934.47;4971640;28;20046;-78
2022/03/01 09:36:12;;;;;;;21.85;14.48;;;;;;;4.41;100.00;102927.19;4970490;28;20042;-77
2022/03/01 09:38:41;;;;;;;19.75;15.07;;;;;;;4.51;100.00;102920.81;4963305;28;20046;-78
2022/03/01 09:41:12;;;;;;;20.20;13.95;;;;;;;4.58;100.00;102923.91;4958316;28;20042;-77
2022/03/01 09:43:41;;;;;;;19.77;14.02;;;;;;;4.61;100.00;102931.94;4969624;28;20054;-78
2022/03/01 09:46:15;;;;;;;18.48;13.75;;;;;;;4.66;100.00;102934.81;4951016;28;20042;-78
2022/03/01 09:48:45;;;;;;;18.70;14.25;;;;;;;4.67;100.00;102934.91;4952265;28;20042;-78
2022/03/01 09:51:14;;;;;;;21.10;13.70;;;;;;;4.71;100.00;102932.47;4954524;28;20046;-77
2022/03/01 09:53:43;;;;;;;17.98;14.23;;;;;;;4.73;100.00;102928.28;4962026;28;20658;-78
2022/03/01 09:56:13;;;;;;;19.70;13.27;;;;;;;4.73;99.72;102923.03;4933725;28;20323;-77
2022/03/01 09:58:46;;;;;;;17.45;13.45;;;;;;;4.72;99.15;102921.22;4987715;28;20041;-77
2022/03/01 10:01:16;;;;;;;19.13;13.60;;;;;;;4.71;99.36;102919.41;4985946;28;20261;-78
2022/03/01 10:03:51;;;;;;;18.50;13.82;;;;;;;4.68;99.10;102913.19;4946381;28;20050;-78
2022/03/01 10:06:21;;;;;;;20.42;13.38;;;;;;;4.69;98.46;102928.06;4945812;28;20688;-78
2022/03/01 10:08:54;;;;;;;21.27;14.68;;;;;;;4.67;97.75;102919.25;4961918;28;20035;-77
2022/03/01 10:11:35;;;;;;;22.00;13.65;;;;;;;4.64;97.82;102921.66;4912077;28;20423;-78
2022/03/01 10:14:04;;;;;;;17.95;12.98;;;;;;;4.65;98.04;102920.88;4958862;28;20054;-77
2022/03/01 10:16:38;;;;;;;17.50;13.40;;;;;;;4.66;97.72;102925.25;4971438;28;20050;-79
2022/03/01 10:19:26;;;;;;;17.58;13.45;;;;;;;4.67;97.32;102914.03;4956967;28;20046;-79
2022/03/01 10:22:00;;;;;;;19.13;14.02;;;;;;;4.70;98.38;102913.28;4944897;28;20058;-78
2022/03/01 10:24:31;;;;;;;19.92;14.43;;;;;;;4.73;98.28;102916.09;4977977;28;20049;-77
2022/03/01 10:27:01;;;;;;;15.68;10.95;;;;;;;4.79;98.48;102926.91;4932927;28;20038;-77
2022/03/01 10:29:47;;;;;;;19.20;13.98;;;;;;;4.83;98.09;102930.59;4955895;28;20127;-77
2022/03/01 10:32:16;;;;;;;18.45;13.20;;;;;;;4.90;98.31;102948.47;4969431;28;20051;-77
2022/03/01 10:35:07;;;;;;;23.03;14.10;;;;;;;4.99;98.39;102943.78;4959970;28;20042;-78
2022/03/01 10:37:38;;;;;;;19.90;13.77;;;;;;;5.12;99.92;102945.41;4946555;28;20054;-78
2022/03/01 10:40:16;;;;;;;20.10;14.02;;;;;;;5.28;99.63;102942.00;4949425;28;20051;-77
2022/03/01 10:43:10;;;;;;;19.75;14.85;;;;;;;5.47;100.00;102950.06;4948331;28;20049;-77
2022/03/01 10:45:47;;;;;;;18.80;13.95;;;;;;;5.64;100.00;102947.53;4978896;28;20046;-78
2022/03/01 10:48:37;;;;;;;18.00;13.45;;;;;;;5.79;100.00;102934.44;4968594;28;21048;-78
2022/03/01 10:51:08;;;;;;;19.52;14.23;;;;;;;5.96;99.74;102938.03;4950399;28;20320;-79
2022/03/01 10:53:41;;;;;;;17.13;13.07;;;;;;;6.07;97.27;102944.75;4966127;28;20046;-77
2022/03/01 10:56:12;;;;;;;17.27;12.98;;;;;;;6.17;96.68;102954.91;4956165;28;20046;-78
2022/03/01 10:58:43;;;;;;;18.42;13.07;;;;;;;6.26;96.24;102951.88;4971211;28;20046;-77
2022/03/01 11:01:13;;;;;;;17.10;12.00;;;;;;;6.34;93.50;102949.69;4935119;28;20059;-78
2022/03/01 11:03:42;;;;;;;17.98;12.90;;;;;;;6.43;93.36;102942.34;4932794;29;20083;-78
2022/03/01 11:06:11;;;;;;;15.88;12.52;;;;;;;6.52;92.59;102941.91;4922970;28;20151;-79
2022/03/01 11:08:41;;;;;;;13.68;11.63;;;;;;;6.62;93.48;102945.09;4901624;29;20043;-78
2022/03/01 11:11:11;;;;;;;17.10;13.18;;;;;;;6.78;92.75;102953.75;4923250;29;20229;-78
2022/03/01 11:13:44;;;;;;;16.23;13.27;;;;;;;6.92;91.06;102942.28;4928240;28;20481;-78
2022/03/01 11:16:17;;;;;;;15.48;12.55;;;;;;;7.06;90.60;102944.72;4942535;28;20039;-78
2022/03/01 11:19:17;;;;;;;14.73;12.82;;;;;;;7.17;90.07;102927.81;4932738;29;20043;-78
2022/03/01 11:21:48;;;;;;;16.33;12.30;;;;;;;7.31;90.38;102937.25;4940589;28;20105;-79
2022/03/01 11:24:19;;;;;;;14.88;11.60;;;;;;;7.34;88.59;102932.19;4938445;29;20043;-79
2022/03/01 11:26:48;;;;;;;15.77;12.45;;;;;;;7.38;88.13;102934.13;4925734;29;20050;-78